METAR Data
IDs: Format: Raw Decoded Include TAF

Data at: 1859 UTC 26 Oct 2021

KT41 261835Z AUTO 13012KT 10SM SCT017 BKN026 OVC050 28/23 A2988 RMK AO2 T02780234
KT41 261815Z AUTO 12012KT 10SM SCT015 BKN024 BKN033 28/24 A2989 RMK AO2 T02780240
KT41 261755Z AUTO 12013KT 10SM SCT017 OVC024 27/24 A2990 RMK AO2 T02720236 10291 20235
KT41 261735Z AUTO 14012KT 10SM SCT017 BKN026 OVC035 28/24 A2992 RMK AO2 T02850240
KT41 261715Z AUTO 13010KT 10SM SCT017 BKN030 OVC045 29/24 A2992 RMK AO2 T02850240
KT41 261655Z AUTO 12011KT 10SM BKN018 BKN030 OVC049 28/23 A2993 RMK AO2 T02790235
KT41 261635Z AUTO 13013KT 10SM BKN018 OVC027 28/24 A2994 RMK AO2 T02810236
KT41 261615Z AUTO 12012KT 10SM BKN014 BKN019 OVC026 28/24 A2994 RMK AO2 T02810240
KT41 261555Z AUTO 13010KT 10SM BKN012 BKN032 28/25 A2995 RMK AO2 T02770246
KT41 261535Z AUTO 12007KT 10SM BKN012 BKN017 OVC032 26/24 A2995 RMK AO2 T02640242
KT41 261515Z AUTO 12008KT 10SM BKN012 26/24 A2995 RMK AO2 T02630244
KT41 261455Z AUTO 11006KT 10SM SCT012 SCT024 SCT030 26/24 A2996 RMK AO2 T02620244
KT41 261435Z AUTO 12007KT 10SM SCT016 BKN023 BKN032 26/24 A2996 RMK AO2 T02600244
KT41 261415Z AUTO 13007KT 10SM SCT016 BKN023 26/25 A2996 RMK AO2 T02580245
KT41 261355Z AUTO 12005KT 10SM SCT017 BKN022 25/24 A2995 RMK AO2 T02540242
KT41 261335Z AUTO 12004KT 10SM BKN015 BKN021 25/24 A2995 RMK AO2 T02500243
KT41 261315Z AUTO 13004KT 10SM BKN015 24/24 A2995 RMK AO2 T02450239
KT41 261255Z AUTO 14005KT 10SM SCT013 24/23 A2994 RMK AO2 T02390233
KT41 261235Z AUTO 14006KT 10SM SCT013 24/23 A2994 RMK AO2 T02380233
KT41 261215Z AUTO 13003KT 10SM SCT013 24/23 A2994 RMK AO2 T02360231
KT41 261155Z AUTO 12004KT 10SM CLR 24/23 A2994 RMK AO2 T02380232 10246 20226
KT41 261135Z AUTO 15004KT 10SM CLR 24/23 A2994 RMK AO2 T02430235
KT41 261115Z AUTO 16005KT 10SM SCT014 SCT019 25/24 A2993 RMK AO2 T02460237
KT41 261055Z AUTO 18004KT 10SM BKN014 25/24 A2993 RMK AO2 T02450238
KT41 261035Z AUTO 16004KT 10SM OVC014 24/24 A2993 RMK AO2 T02450238
KT41 261015Z AUTO 00000KT 10SM OVC012 24/24 A2993 RMK AO2 T02450239
KT41 260955Z AUTO 00000KT 10SM OVC012 24/24 A2993 RMK AO2 T02430238
KT41 260935Z AUTO 00000KT 10SM BKN012 24/24 A2993 RMK AO2 T02430239
KT41 260915Z AUTO 17003KT 10SM SCT010 24/24 A2993 RMK AO2 T02410237
KT41 260855Z AUTO 17003KT 10SM SCT010 24/24 A2993 RMK AO2 T02410237
KT41 260835Z AUTO 18004KT 10SM SCT010 SCT014 24/24 A2994 RMK AO2 T02410237
KT41 260815Z AUTO 19004KT 10SM SCT010 24/24 A2994 RMK AO2 T02400236
KT41 260755Z AUTO 16004KT 10SM CLR 24/24 A2994 RMK AO2 T02390235
KT41 260735Z AUTO 17005KT 10SM CLR 24/24 A2994 RMK AO2 T02400237
KT41 260715Z AUTO 17003KT 4SM BR CLR 23/23 A2994 RMK AO2 T02320229
KT41 260655Z AUTO 00000KT 3/4SM BR VV005 23/23 A2995 RMK AO2 T02290225
KT41 260635Z AUTO 00000KT 1/4SM FG VV002 23/23 A2995 RMK AO2 T02330229
KT41 260615Z AUTO 00000KT 1/4SM FG BKN005 23/23 A2995 RMK AO2 T02320228
KT41 260555Z AUTO 00000KT M1/4SM FG BKN005 23/23 A2995 RMK AO2 T02320228 10274 20230
KT41 260535Z AUTO 00000KT 7SM BR CLR 24/23 A2995 RMK AO2 T02370233
KT41 260515Z AUTO 18003KT 10SM CLR 24/24 A2996 RMK AO2 T02440238
KT41 260455Z AUTO 19004KT 10SM CLR 24/24 A2996 RMK AO2 T02450238
KT41 260435Z AUTO 19004KT 10SM CLR 25/24 A2997 RMK AO2 T02470239
KT41 260415Z AUTO 19004KT 10SM CLR 25/24 A2997 RMK AO2 T02470239
KT41 260355Z AUTO 19004KT 10SM CLR 25/24 A2997 RMK AO2 T02470238
KT41 260335Z AUTO 20004KT 10SM CLR 24/23 A2997 RMK AO2 T02440234
KT41 260315Z AUTO 18004KT 10SM CLR 24/23 A2997 RMK AO2 T02350230
KT41 260255Z AUTO 00000KT 10SM CLR 24/23 A2997 RMK AO2 T02390232
KT41 260235Z AUTO 00000KT 10SM CLR 24/23 A2996 RMK AO2 T02420230
KT41 260215Z AUTO 19004KT 10SM CLR 25/23 A2996 RMK AO2 T02540233
KT41 260155Z AUTO 19005KT 10SM CLR 26/23 A2996 RMK AO2 T02560233
KT41 260135Z AUTO 19006KT 10SM CLR 26/23 A2996 RMK AO2 T02590234
KT41 260115Z AUTO 19006KT 10SM CLR 26/23 A2995 RMK AO2 T02600230
KT41 260055Z AUTO 19004KT 10SM CLR 26/23 A2995 RMK AO2 T02650231
KT41 260035Z AUTO 18005KT 10SM CLR 27/23 A2994 RMK AO2 T02680232
KT41 260015Z AUTO 18005KT 10SM CLR 27/24 A2994 RMK AO2 T02730236
KT41 252355Z AUTO 15005KT 10SM CLR 27/23 A2993 RMK AO2 T02750230 10320 20274 403200221
KT41 252335Z AUTO 13005KT 10SM CLR 28/23 A2992 RMK AO2 T02760228
KT41 252315Z AUTO 14006KT 10SM CLR 28/23 A2991 RMK AO2 T02830230
KT41 252255Z AUTO 14008KT 10SM CLR 29/22 A2991 RMK AO2 T02890225
KT41 252235Z AUTO 14007KT 10SM CLR 30/22 A2991 RMK AO2 T02960223
KT41 252215Z AUTO 14008KT 10SM CLR 30/23 A2992 RMK AO2 T02980228
KT41 252155Z AUTO 12007KT 10SM CLR 30/22 A2992 RMK AO2 T02990221
KT41 252135Z AUTO 12007KT 10SM CLR 30/23 A2992 RMK AO2 T02990228
KT41 252115Z AUTO 11010KT 10SM CLR 30/24 A2991 RMK AO2 T03020236
KT41 252055Z AUTO 12007KT 10SM CLR 31/23 A2991 RMK AO2 T03110232
KT41 252035Z AUTO 12008KT 10SM SCT033 SCT039 31/23 A2992 RMK AO2 T03100233
KT41 252015Z AUTO 06004KT 10SM SCT033 BKN039 BKN045 31/23 A2992 RMK AO2 T03090230
KT41 251955Z AUTO 00000KT 10SM BKN033 BKN040 BKN048 31/24 A2993 RMK AO2 T03150235
KT41 251935Z AUTO 07005KT 10SM SCT032 SCT038 BKN046 31/23 A2993 RMK AO2 T03140228
KT41 251915Z AUTO 00000KT 10SM SCT043 BKN049 31/22 A2993 RMK AO2 T03090223
KT41 251855Z AUTO 33003KT 10SM SCT033 SCT039 30/22 A2994 RMK AO2 T02970224
KT41 251835Z AUTO 35005KT 10SM BKN036 BKN042 30/23 A2994 RMK AO2 T03040226
KT41 251815Z AUTO 27005KT 10SM SCT032 31/23 A2995 RMK AO2 T03070231
KT41 251755Z AUTO 00000KT 10SM BKN030 29/22 A2996 RMK AO2 T02930225 10303 20226
KT41 251735Z AUTO 23004KT 10SM BKN030 30/23 A2997 RMK AO2 T02970227
KT41 251715Z AUTO 21005KT 10SM SCT024 29/23 A2997 RMK AO2 T02880230
KT41 251655Z AUTO 28004KT 10SM BKN024 28/23 A2998 RMK AO2 T02820228
KT41 251635Z AUTO 24004KT 10SM CLR 29/23 A2998 RMK AO2 T02860228
KT41 251615Z AUTO 23004KT 10SM SCT017 SCT025 28/23 A2999 RMK AO2 T02840232
KT41 251555Z AUTO 22006KT 10SM CLR 28/24 A2999 RMK AO2 T02770238
KT41 251535Z AUTO 22005KT 10SM SCT013 SCT020 25/23 A2999 RMK AO2 T02530234
KT41 251515Z AUTO 27006KT 10SM SCT011 BKN020 25/24 A2999 RMK AO2 T02540243
KT41 251455Z AUTO 24003KT 10SM SCT007 BKN020 25/25 A2999 RMK AO2 T02500246
KT41 251435Z AUTO 24003KT 7SM BKN005 BKN019 25/24 A2999 RMK AO2 T02470244
KT41 251415Z AUTO 20003KT 7SM BR BKN003 OVC017 24/24 A2999 RMK AO2 T02440241
KT41 251355Z AUTO 28003KT 5SM BR OVC003 24/24 A2998 RMK AO2 T02450242
KT41 251335Z AUTO 00000KT 1/2SM FG OVC003 24/24 A2998 RMK AO2 T02410238
KT41 251315Z AUTO 29003KT M1/4SM FG OVC003 24/24 A2997 RMK AO2 T02400237
KT41 251255Z AUTO 00000KT M1/4SM FG OVC003 24/23 A2996 RMK AO2 T02360233
KT41 251235Z AUTO 00000KT M1/4SM FG OVC003 23/23 A2995 RMK AO2 T02330230
KT41 251215Z AUTO 00000KT M1/4SM FG OVC003 23/23 A2994 RMK AO2 T02300227
KT41 251155Z AUTO 00000KT M1/4SM FG OVC003 23/22 A2992 RMK AO2 T02270224 10243 20221
KT41 251135Z AUTO 00000KT M1/4SM FG OVC003 23/23 A2992 RMK AO2 T02300227
KT41 251115Z AUTO 00000KT M1/4SM FG OVC003 23/23 A2992 RMK AO2 T02300227
KT41 251055Z AUTO 00000KT 1/4SM FG OVC003 23/22 A2992 RMK AO2 T02270224
KT41 251035Z AUTO 26003KT 1/4SM FG OVC003 23/23 A2991 RMK AO2 T02310228
KT41 251015Z AUTO 24003KT 1/4SM FG OVC003 23/23 A2991 RMK AO2 T02310228
KT41 250955Z AUTO 23003KT 3/4SM BR BKN003 23/23 A2991 RMK AO2 T02290226
KT41 250935Z AUTO 19004KT 1SM BR BKN006 23/22 A2990 RMK AO2 T02270224
KT41 250915Z AUTO 21003KT 10SM SCT006 23/22 A2991 RMK AO2 T02280224
KT41 250855Z AUTO 19004KT 10SM CLR 23/22 A2991 RMK AO2 T02280225
KT41 250835Z AUTO 24003KT 3 1/2SM BR SCT012 23/22 A2991 RMK AO2 T02260222
KT41 250815Z AUTO 00000KT 3SM BR CLR 23/22 A2992 RMK AO2 T02270223
KT41 250755Z AUTO 24003KT 7SM BR CLR 23/23 A2992 RMK AO2 T02310227
KT41 250735Z AUTO 24003KT 10SM SCT013 23/23 A2992 RMK AO2 T02340230
KT41 250715Z AUTO 22003KT 10SM CLR 24/23 A2992 RMK AO2 T02370232